createdAt,value
2019-04-20T00:00:53.000Z,14.90
2019-04-20T00:03:26.059Z,14.90
2019-04-20T00:05:53.345Z,14.90
2019-04-20T00:08:26.529Z,14.80
2019-04-20T00:11:03.535Z,14.90
2019-04-20T00:13:37.829Z,14.80
2019-04-20T00:15:57.819Z,14.80
2019-04-20T00:18:38.195Z,14.70
2019-04-20T00:21:19.096Z,14.70
2019-04-20T00:23:53.021Z,14.70
2019-04-20T00:27:03.632Z,14.70
2019-04-20T00:29:21.558Z,14.60
2019-04-20T00:31:45.729Z,14.60
2019-04-20T00:34:13.899Z,14.60
2019-04-20T00:36:37.355Z,14.50
2019-04-20T00:39:11.453Z,14.50
2019-04-20T00:41:48.000Z,14.50
2019-04-20T00:44:17.361Z,14.50
2019-04-20T00:46:59.068Z,14.50
2019-04-20T00:49:31.068Z,14.40
2019-04-20T00:52:17.163Z,14.40
2019-04-20T00:54:18.119Z,14.40
2019-04-20T00:56:47.936Z,14.30
2019-04-20T00:59:32.342Z,14.30
2019-04-20T01:02:10.633Z,14.30
2019-04-20T01:04:44.718Z,14.30
2019-04-20T01:07:13.990Z,14.30
2019-04-20T01:10:03.017Z,14.20
2019-04-20T01:12:58.753Z,14.20
2019-04-20T01:15:51.568Z,14.20
2019-04-20T01:18:15.197Z,14.20
2019-04-20T01:20:45.341Z,14.10
2019-04-20T01:23:17.892Z,14.10
2019-04-20T01:25:51.972Z,14.10
2019-04-20T01:28:35.845Z,14.00
2019-04-20T01:31:00.014Z,14.00
2019-04-20T01:39:54.188Z,13.80
2019-04-20T01:45:58.446Z,13.80
2019-04-20T01:48:41.560Z,13.70
2019-04-20T01:57:32.946Z,13.60
2019-04-20T02:00:34.392Z,13.60
2019-04-20T02:03:44.806Z,13.60
2019-04-20T02:15:44.475Z,13.50
2019-04-20T02:18:22.781Z,13.50
2019-04-20T02:21:00.222Z,13.50
2019-04-20T02:23:25.353Z,13.50
2019-04-20T02:25:44.350Z,13.50
2019-04-20T02:28:27.266Z,13.30
2019-04-20T02:31:23.416Z,13.40
2019-04-20T02:34:03.921Z,13.40
2019-04-20T02:36:51.154Z,13.30
2019-04-20T02:39:21.515Z,13.40
2019-04-20T02:41:44.665Z,13.40
2019-04-20T02:44:27.911Z,13.30
2019-04-20T02:46:52.620Z,13.30
2019-04-20T02:49:29.990Z,13.30
2019-04-20T02:51:47.554Z,13.30
2019-04-20T02:59:48.639Z,13.30
2019-04-20T03:01:55.292Z,13.20
2019-04-20T03:04:25.698Z,13.20
2019-04-20T03:07:19.571Z,13.10
2019-04-20T03:13:18.673Z,13.10
2019-04-20T03:16:08.127Z,13.10
2019-04-20T03:18:35.049Z,13.10
2019-04-20T03:21:33.350Z,13.10
2019-04-20T03:24:09.542Z,13.10
2019-04-20T03:26:48.902Z,13.00
2019-04-20T03:29:34.889Z,12.90
2019-04-20T03:32:53.457Z,12.80
2019-04-20T03:37:34.716Z,12.90
2019-04-20T03:39:55.558Z,12.80
2019-04-20T03:42:11.103Z,12.90
2019-04-20T03:44:50.470Z,12.80
2019-04-20T03:47:25.592Z,12.80
2019-04-20T03:53:25.213Z,12.70
2019-04-20T03:56:34.391Z,12.70
2019-04-20T03:59:43.687Z,12.60
2019-04-20T04:02:45.449Z,12.60
2019-04-20T04:05:36.941Z,12.60
2019-04-20T04:08:05.145Z,12.60
2019-04-20T04:11:02.408Z,12.50
2019-04-20T04:13:18.731Z,12.60
2019-04-20T04:15:55.617Z,12.60
2019-04-20T04:21:49.803Z,12.60
2019-04-20T04:24:19.279Z,12.60
2019-04-20T04:26:51.225Z,12.50
2019-04-20T04:29:30.065Z,12.50
2019-04-20T04:32:06.718Z,12.50
2019-04-20T04:34:30.724Z,12.50
2019-04-20T04:37:20.375Z,12.40
2019-04-20T04:40:23.090Z,12.40
2019-04-20T04:45:40.745Z,12.40
2019-04-20T04:50:59.088Z,12.30
2019-04-20T04:53:44.343Z,12.30
2019-04-20T04:56:20.055Z,12.30
2019-04-20T04:59:00.301Z,12.30
2019-04-20T05:01:35.599Z,12.30
2019-04-20T05:05:08.610Z,12.30
2019-04-20T05:10:32.991Z,12.40
2019-04-20T05:26:14.096Z,12.40
2019-04-20T05:29:13.416Z,12.50
2019-04-20T05:32:03.513Z,12.60
2019-04-20T05:34:55.330Z,12.60
2019-04-20T05:37:48.677Z,12.70
2019-04-20T05:43:52.237Z,12.70
2019-04-20T05:58:56.829Z,13.00
2019-04-20T06:04:53.919Z,13.10
2019-04-20T06:07:26.671Z,13.10
2019-04-20T06:10:09.850Z,13.20
2019-04-20T06:12:45.496Z,13.30
2019-04-20T06:15:50.570Z,13.30
2019-04-20T06:18:44.113Z,13.40
2019-04-20T06:21:52.940Z,13.50
2019-04-20T06:24:39.885Z,13.60
2019-04-20T06:27:27.148Z,13.60
2019-04-20T06:30:09.775Z,13.80
2019-04-20T06:33:24.597Z,13.80
2019-04-20T06:36:09.349Z,13.90
2019-04-20T06:38:43.201Z,14.00
2019-04-20T06:43:25.640Z,14.10
2019-04-20T06:46:05.590Z,14.20
2019-04-20T06:48:34.959Z,14.40
2019-04-20T06:50:57.092Z,14.40
2019-04-20T06:53:45.022Z,14.50
2019-04-20T06:56:17.432Z,14.60
2019-04-20T06:58:53.816Z,14.70
2019-04-20T07:01:17.206Z,14.70
2019-04-20T07:04:04.236Z,14.80
2019-04-20T07:06:35.277Z,14.90
2019-04-20T07:09:00.659Z,15.00
2019-04-20T07:11:25.122Z,15.10
2019-04-20T07:13:47.243Z,15.20
2019-04-20T07:16:37.948Z,15.30
2019-04-20T07:19:19.047Z,15.30
2019-04-20T07:22:25.357Z,15.40
2019-04-20T07:24:52.231Z,15.50
2019-04-20T07:27:19.763Z,15.60
2019-04-20T07:29:51.924Z,15.70
2019-04-20T07:32:13.196Z,15.80
2019-04-20T07:34:56.699Z,15.90
2019-04-20T07:40:07.705Z,16.00
2019-04-20T07:42:52.437Z,16.10
2019-04-20T07:45:08.749Z,16.10
2019-04-20T07:47:41.512Z,16.30
2019-04-20T07:50:05.128Z,16.30
2019-04-20T07:52:33.892Z,16.40
2019-04-20T07:55:32.745Z,16.50
2019-04-20T07:57:37.696Z,16.50
2019-04-20T08:00:16.289Z,16.60
2019-04-20T08:03:08.908Z,16.70
2019-04-20T08:05:45.809Z,16.80
2019-04-20T08:08:22.754Z,16.90
2019-04-20T08:10:52.375Z,17.00
2019-04-20T08:13:35.378Z,17.00
2019-04-20T08:16:07.292Z,17.10
2019-04-20T08:18:32.166Z,17.20
2019-04-20T08:21:21.349Z,17.20
2019-04-20T08:23:28.553Z,17.30
2019-04-20T08:25:54.374Z,17.40
2019-04-20T08:28:35.898Z,17.50
2019-04-20T08:31:29.775Z,17.60
2019-04-20T08:34:24.735Z,17.70
2019-04-20T08:36:47.797Z,17.90
2019-04-20T08:39:30.782Z,18.00
2019-04-20T08:41:57.534Z,18.10
2019-04-20T08:47:07.263Z,18.40
2019-04-20T08:49:29.457Z,18.50
2019-04-20T08:52:12.649Z,18.60
2019-04-20T08:54:28.802Z,18.80
2019-04-20T08:56:51.130Z,19.10
2019-04-20T09:03:21.952Z,19.60
2019-04-20T09:09:44.252Z,20.30
2019-04-20T09:21:28.824Z,22.20
2019-04-20T09:24:34.660Z,22.80
2019-04-20T09:40:02.435Z,25.00
2019-04-20T09:42:49.302Z,25.30
2019-04-20T09:46:01.391Z,25.50
2019-04-20T09:48:54.031Z,25.80
2019-04-20T10:07:01.099Z,26.80
2019-04-20T10:09:44.575Z,26.80
2019-04-20T10:12:24.263Z,26.80
2019-04-20T10:15:12.463Z,26.90
2019-04-20T10:17:49.910Z,26.90
2019-04-20T10:20:34.804Z,27.00
2019-04-20T10:23:14.556Z,27.20
2019-04-20T10:25:56.596Z,27.40
2019-04-20T10:28:37.782Z,27.50
2019-04-20T10:31:20.383Z,27.80
2019-04-20T10:34:03.872Z,27.90
2019-04-20T10:37:05.824Z,28.00
2019-04-20T10:39:48.736Z,28.20
2019-04-20T10:42:30.145Z,28.20
2019-04-20T10:45:12.885Z,28.40
2019-04-20T10:47:54.965Z,28.50
2019-04-20T10:50:36.769Z,28.60
2019-04-20T10:53:19.582Z,28.60
2019-04-20T10:56:01.298Z,28.60
2019-04-20T10:58:43.384Z,28.70
2019-04-20T11:01:25.376Z,28.90
2019-04-20T11:04:08.333Z,29.20
2019-04-20T11:06:50.333Z,29.20
2019-04-20T11:09:32.480Z,29.30
2019-04-20T11:12:14.588Z,29.20
2019-04-20T11:14:58.716Z,29.20
2019-04-20T11:17:41.680Z,29.30
2019-04-20T11:20:23.449Z,29.20
2019-04-20T11:23:04.601Z,29.30
2019-04-20T11:25:46.440Z,29.30
2019-04-20T11:28:28.170Z,29.40
2019-04-20T11:31:10.257Z,29.50
2019-04-20T11:33:52.239Z,29.60
2019-04-20T11:36:33.180Z,29.80
2019-04-20T11:39:15.137Z,29.80
2019-04-20T11:41:56.805Z,29.60
2019-04-20T11:44:38.559Z,29.80
2019-04-20T11:47:19.534Z,29.60
2019-04-20T11:50:01.750Z,29.70
2019-04-20T11:52:48.114Z,29.80
2019-04-20T11:55:29.068Z,29.90
2019-04-20T11:58:10.095Z,29.60
2019-04-20T12:01:01.196Z,29.60
2019-04-20T12:03:47.934Z,29.60
2019-04-20T12:06:19.006Z,29.60
2019-04-20T12:09:01.007Z,29.80
2019-04-20T12:11:56.228Z,29.90
2019-04-20T12:14:25.553Z,30.00
2019-04-20T12:16:55.957Z,30.00
2019-04-20T12:19:45.959Z,30.00
2019-04-20T12:22:16.417Z,29.80
2019-04-20T12:24:46.103Z,29.90
2019-04-20T12:27:16.675Z,29.80
2019-04-20T12:29:47.868Z,29.80
2019-04-20T12:32:17.701Z,29.90
2019-04-20T12:37:34.301Z,29.90
2019-04-20T12:40:17.234Z,29.90
2019-04-20T12:42:59.113Z,30.00
2019-04-20T12:45:40.402Z,29.90
2019-04-20T12:48:23.781Z,29.80
2019-04-20T12:51:05.764Z,29.80
2019-04-20T12:53:46.827Z,29.90
2019-04-20T12:56:28.542Z,29.80
2019-04-20T12:59:11.543Z,29.70
2019-04-20T13:01:53.373Z,29.70
2019-04-20T13:04:24.588Z,29.80
2019-04-20T13:13:44.207Z,29.80
2019-04-20T13:19:37.535Z,29.70
2019-04-20T13:22:19.113Z,29.60
2019-04-20T13:24:49.364Z,29.60
2019-04-20T13:28:00.945Z,29.60
2019-04-20T13:33:49.487Z,29.50
2019-04-20T13:36:38.245Z,29.50
2019-04-20T13:42:29.487Z,29.40
2019-04-20T13:45:17.034Z,29.40
2019-04-20T13:51:07.941Z,29.40
2019-04-20T14:06:02.545Z,29.10
2019-04-20T14:12:25.245Z,29.00
2019-04-20T14:15:11.183Z,28.90
2019-04-20T14:21:02.479Z,28.90
2019-04-20T14:23:54.929Z,28.80
2019-04-20T14:26:25.652Z,28.60
2019-04-20T14:28:56.741Z,28.50
2019-04-20T14:32:07.718Z,28.30
2019-04-20T14:34:38.636Z,28.30
2019-04-20T14:37:08.810Z,28.30
2019-04-20T14:39:38.716Z,28.40
2019-04-20T14:42:36.500Z,28.40
2019-04-20T14:44:59.713Z,28.40
2019-04-20T14:47:49.856Z,28.40
2019-04-20T14:50:20.142Z,28.20
2019-04-20T14:52:51.411Z,28.00
2019-04-20T14:55:41.593Z,28.10
2019-04-20T14:58:31.488Z,28.20
2019-04-20T15:01:06.792Z,28.10
2019-04-20T15:03:40.425Z,28.10
2019-04-20T15:06:11.659Z,28.10
2019-04-20T15:08:42.898Z,28.10
2019-04-20T15:11:14.662Z,28.10
2019-04-20T15:13:44.761Z,28.10
2019-04-20T15:16:34.787Z,28.10
2019-04-20T15:19:43.331Z,28.10
2019-04-20T15:22:33.653Z,28.00
2019-04-20T15:25:03.729Z,27.70
2019-04-20T15:27:46.322Z,27.50
2019-04-20T15:30:16.381Z,27.40
2019-04-20T15:32:47.095Z,27.30
2019-04-20T15:35:19.715Z,27.30
2019-04-20T15:37:49.498Z,27.10
2019-04-20T15:40:19.649Z,27.00
2019-04-20T15:42:59.081Z,26.90
2019-04-20T15:45:21.258Z,26.90
2019-04-20T15:47:52.128Z,26.80
2019-04-20T15:50:41.443Z,26.70
2019-04-20T15:53:11.410Z,26.60
2019-04-20T15:56:04.153Z,26.40
2019-04-20T15:58:32.373Z,26.30
2019-04-20T16:04:29.090Z,26.00
2019-04-20T16:06:56.953Z,25.80
2019-04-20T16:09:28.988Z,25.80
2019-04-20T16:12:18.397Z,25.70
2019-04-20T16:15:07.561Z,25.60
2019-04-20T16:17:56.794Z,25.40
2019-04-20T16:20:29.355Z,25.20
2019-04-20T16:23:18.634Z,25.20
2019-04-20T16:26:15.444Z,25.10
2019-04-20T16:28:45.940Z,25.00
2019-04-20T16:31:30.814Z,24.90
2019-04-20T16:36:56.402Z,24.90
2019-04-20T16:39:48.373Z,24.80
2019-04-20T16:55:14.748Z,24.40
2019-04-20T16:57:53.061Z,24.30
2019-04-20T17:12:47.818Z,23.90
2019-04-20T17:15:19.382Z,23.90
2019-04-20T17:17:51.393Z,23.80
2019-04-20T17:20:22.262Z,23.70
2019-04-20T17:22:52.532Z,23.70
2019-04-20T17:25:23.836Z,23.60
2019-04-20T17:28:18.660Z,23.50
2019-04-20T17:31:13.399Z,23.50
2019-04-20T17:34:04.720Z,23.40
2019-04-20T17:36:32.831Z,23.30
2019-04-20T17:39:08.056Z,23.30
2019-04-20T17:41:49.968Z,23.30
2019-04-20T17:44:23.801Z,23.20
2019-04-20T17:46:48.559Z,23.20
2019-04-20T17:49:19.462Z,23.10
2019-04-20T17:52:05.132Z,23.10
2019-04-20T17:54:31.351Z,23.00
2019-04-20T17:57:02.274Z,23.00
2019-04-20T17:59:32.448Z,22.80
2019-04-20T18:02:44.360Z,22.80
2019-04-20T18:05:51.880Z,22.70
2019-04-20T18:08:20.458Z,22.60
2019-04-20T18:10:48.674Z,22.50
2019-04-20T18:13:14.253Z,22.50
2019-04-20T18:15:54.096Z,22.30
2019-04-20T18:18:46.457Z,22.30
2019-04-20T18:21:24.349Z,22.20
2019-04-20T18:23:54.602Z,22.10
2019-04-20T18:26:43.726Z,22.00
2019-04-20T18:29:14.959Z,21.90
2019-04-20T18:31:47.292Z,21.80
2019-04-20T18:34:29.280Z,21.70
2019-04-20T18:37:05.709Z,21.60
2019-04-20T18:39:37.463Z,21.50
2019-04-20T18:42:12.996Z,21.40
2019-04-20T18:44:54.646Z,21.40
2019-04-20T18:47:29.053Z,21.20
2019-04-20T18:49:49.122Z,21.10
2019-04-20T18:52:09.916Z,21.00
2019-04-20T18:54:44.161Z,20.90
2019-04-20T18:57:18.041Z,20.90
2019-04-20T18:59:50.475Z,20.90
2019-04-20T19:02:21.386Z,20.70
2019-04-20T19:04:48.075Z,20.70
2019-04-20T19:07:19.763Z,20.60
2019-04-20T19:09:55.273Z,20.50
2019-04-20T19:12:36.619Z,20.50
2019-04-20T19:15:41.685Z,20.40
2019-04-20T19:18:11.544Z,20.40
2019-04-20T19:20:36.823Z,20.30
2019-04-20T19:23:08.368Z,20.30
2019-04-20T19:25:42.413Z,20.20
2019-04-20T19:28:14.430Z,20.10
2019-04-20T19:30:50.223Z,20.00
2019-04-20T19:33:31.107Z,20.00
2019-04-20T19:35:56.373Z,20.00
2019-04-20T19:38:25.757Z,19.90
2019-04-20T19:41:02.146Z,19.80
2019-04-20T19:43:30.898Z,19.80
2019-04-20T19:46:35.596Z,19.80
2019-04-20T19:48:39.658Z,19.70
2019-04-20T19:51:25.484Z,19.70
2019-04-20T19:53:48.311Z,19.60
2019-04-20T19:56:39.968Z,19.60
2019-04-20T19:59:09.266Z,19.50
2019-04-20T20:01:42.794Z,19.50
2019-04-20T20:04:13.714Z,19.40
2019-04-20T20:07:05.524Z,19.30
2019-04-20T20:15:22.238Z,19.30
2019-04-20T20:18:07.195Z,19.20
2019-04-20T20:20:35.832Z,19.20
2019-04-20T20:22:53.133Z,19.20
2019-04-20T20:25:23.994Z,19.10
2019-04-20T20:28:18.587Z,19.00
2019-04-20T20:31:16.334Z,18.90
2019-04-20T20:33:49.672Z,18.90
2019-04-20T20:36:12.708Z,18.80
2019-04-20T20:38:39.763Z,18.80
2019-04-20T20:41:21.775Z,18.70
2019-04-20T20:43:56.333Z,18.60
2019-04-20T20:46:24.991Z,18.60
2019-04-20T20:49:16.810Z,18.60
2019-04-20T20:51:44.305Z,18.60
2019-04-20T20:53:59.935Z,18.50
2019-04-20T20:56:25.057Z,18.50
2019-04-20T20:59:00.825Z,18.50
2019-04-20T21:01:26.481Z,18.40
2019-04-20T21:03:56.717Z,18.40
2019-04-20T21:06:26.784Z,18.40
2019-04-20T21:08:59.932Z,18.40
2019-04-20T21:11:31.451Z,18.30
2019-04-20T21:13:59.389Z,18.30
2019-04-20T21:16:31.895Z,18.20
2019-04-20T21:19:18.203Z,18.20
2019-04-20T21:21:47.790Z,18.20
2019-04-20T21:24:17.804Z,18.10
2019-04-20T21:26:47.697Z,18.10
2019-04-20T21:29:20.495Z,18.00
2019-04-20T21:31:55.325Z,18.00
2019-04-20T21:34:22.296Z,18.00
2019-04-20T21:36:56.224Z,18.00
2019-04-20T21:39:34.568Z,17.90
2019-04-20T21:42:04.640Z,17.90
2019-04-20T21:44:34.581Z,17.90
2019-04-20T21:47:01.978Z,17.80
2019-04-20T21:49:47.314Z,17.80
2019-04-20T21:52:10.622Z,17.70
2019-04-20T21:54:35.952Z,17.70
2019-04-20T21:57:09.502Z,17.70
2019-04-20T21:59:43.213Z,17.60
2019-04-20T22:02:16.979Z,17.60
2019-04-20T22:04:43.051Z,17.60
2019-04-20T22:07:12.794Z,17.50
2019-04-20T22:09:46.726Z,17.60
2019-04-20T22:12:15.893Z,17.50
2019-04-20T22:14:48.709Z,17.50
2019-04-20T22:17:25.949Z,17.50
2019-04-20T22:20:02.657Z,17.50
2019-04-20T22:22:38.614Z,17.40
2019-04-20T22:25:08.054Z,17.40
2019-04-20T22:27:27.896Z,17.40
2019-04-20T22:29:54.737Z,17.30
2019-04-20T22:32:25.813Z,17.30
2019-04-20T22:35:01.370Z,17.20
2019-04-20T22:37:34.814Z,17.20
2019-04-20T22:40:12.729Z,17.20
2019-04-20T22:42:46.496Z,17.10
2019-04-20T22:45:14.100Z,17.10
2019-04-20T22:47:43.050Z,17.10
2019-04-20T22:50:28.968Z,17.00
2019-04-20T22:52:55.893Z,17.00
2019-04-20T22:55:43.207Z,16.90
2019-04-20T22:58:00.442Z,16.90
2019-04-20T23:00:31.034Z,16.80
2019-04-20T23:02:52.255Z,16.80
2019-04-20T23:05:22.796Z,16.80
2019-04-20T23:07:53.142Z,16.80
2019-04-20T23:10:27.864Z,16.70
2019-04-20T23:12:57.834Z,16.70
2019-04-20T23:15:25.948Z,16.60
2019-04-20T23:17:55.968Z,16.60
2019-04-20T23:20:30.777Z,16.60
2019-04-20T23:22:58.538Z,16.50
2019-04-20T23:25:29.280Z,16.50
2019-04-20T23:28:07.721Z,16.40
2019-04-20T23:30:34.036Z,16.30
2019-04-20T23:33:02.141Z,16.30
2019-04-20T23:35:36.813Z,16.10
2019-04-20T23:38:11.044Z,16.20
2019-04-20T23:40:35.362Z,16.20
2019-04-20T23:43:18.516Z,16.10
2019-04-20T23:46:19.616Z,16.10
2019-04-20T23:49:12.368Z,16.00
2019-04-20T23:52:00.672Z,15.90
2019-04-20T23:54:13.672Z,15.80
2019-04-20T23:56:39.881Z,15.80
2019-04-20T23:59:10.656Z,15.70
